Time;durP1;ratioP1;P1;durP2;ratioP2;P2;SDS_P1;SDS_P2;PMS_P1;PMS_P2;Temp;Humidity;BMP_temperature;BMP_pressure;BME280_temperature;BME280_humidity;BME280_pressure;Samples;Min_cycle;Max_cycle;Signal;HPM_P1;HPM_P2
2022/09/15 00:01:44;;;;;;;1.00;0.88;;;16.40;99.90;;;;;;6086130;23;20032;-73
2022/09/15 00:04:12;;;;;;;1.25;1.10;;;16.30;99.90;;;;;;6086496;23;20022;-74
2022/09/15 00:06:38;;;;;;;1.00;0.90;;;16.30;99.90;;;;;;6086596;23;20026;-73
2022/09/15 00:09:05;;;;;;;1.45;0.88;;;16.30;99.90;;;;;;6087861;23;20028;-73
2022/09/15 00:11:33;;;;;;;1.20;0.98;;;16.20;99.90;;;;;;6063484;23;20022;-73
2022/09/15 00:14:01;;;;;;;1.05;0.95;;;16.20;99.90;;;;;;6087164;23;20094;-74
2022/09/15 00:16:29;;;;;;;1.05;0.73;;;16.20;99.90;;;;;;6086752;23;20022;-73
2022/09/15 00:18:57;;;;;;;1.10;0.75;;;16.10;99.90;;;;;;6112967;23;20026;-73
2022/09/15 00:21:29;;;;;;;1.13;0.98;;;16.10;99.90;;;;;;6063511;23;20121;-74
2022/09/15 00:23:56;;;;;;;1.08;0.93;;;16.00;99.90;;;;;;6063568;23;20785;-74
2022/09/15 00:26:24;;;;;;;0.90;0.90;;;16.00;99.90;;;;;;6087822;23;20018;-73
2022/09/15 00:28:50;;;;;;;0.90;0.85;;;16.00;99.90;;;;;;6086790;23;20026;-73
2022/09/15 00:31:20;;;;;;;1.15;1.05;;;16.00;99.90;;;;;;6086252;23;20057;-74
2022/09/15 00:33:48;;;;;;;1.10;1.00;;;15.90;99.90;;;;;;6085894;23;20029;-73
2022/09/15 00:36:14;;;;;;;0.93;0.90;;;15.90;99.90;;;;;;6087252;23;20029;-74
2022/09/15 00:38:41;;;;;;;1.20;1.08;;;15.80;99.90;;;;;;6086906;23;20426;-73
2022/09/15 00:41:10;;;;;;;1.25;1.10;;;15.80;99.90;;;;;;6087842;23;20322;-73
2022/09/15 00:43:40;;;;;;;1.00;0.90;;;15.70;99.90;;;;;;6087014;23;20036;-74
2022/09/15 00:46:07;;;;;;;2.17;1.17;;;15.70;99.90;;;;;;6112447;23;20029;-74
2022/09/15 00:48:34;;;;;;;1.60;1.13;;;15.70;99.90;;;;;;6062351;23;20026;-74
2022/09/15 00:51:01;;;;;;;1.00;0.90;;;15.70;99.90;;;;;;6086611;23;20048;-73
2022/09/15 00:53:27;;;;;;;1.60;1.02;;;15.60;99.90;;;;;;6086452;23;20029;-73
2022/09/15 00:55:54;;;;;;;1.10;0.98;;;15.60;99.90;;;;;;6113415;23;20026;-74
2022/09/15 00:58:35;;;;;;;0.88;0.70;;;15.60;99.90;;;;;;6087011;23;20195;-73
2022/09/15 01:01:03;;;;;;;1.88;1.05;;;15.70;99.90;;;;;;6062275;23;20021;-74
2022/09/15 01:03:31;;;;;;;1.15;1.00;;;15.60;99.90;;;;;;6062557;23;20084;-74
2022/09/15 01:06:23;;;;;;;1.33;1.02;;;15.70;99.90;;;;;;6086111;23;20053;-74
2022/09/15 01:09:02;;;;;;;1.00;0.90;;;15.70;99.90;;;;;;6084175;23;20350;-74
2022/09/15 01:11:29;;;;;;;1.15;0.98;;;15.60;99.90;;;;;;6086581;23;20339;-74
2022/09/15 01:13:56;;;;;;;1.33;1.00;;;15.60;99.90;;;;;;6086137;23;20018;-74
2022/09/15 01:16:26;;;;;;;1.40;1.25;;;15.60;99.90;;;;;;6062123;23;20018;-73
2022/09/15 01:19:13;;;;;;;1.27;1.08;;;15.60;99.90;;;;;;6087377;23;20073;-73
2022/09/15 01:21:52;;;;;;;1.85;1.38;;;15.50;99.90;;;;;;6086159;23;20484;-75
2022/09/15 01:24:43;;;;;;;1.85;1.27;;;15.50;99.90;;;;;;6087736;23;20194;-73
2022/09/15 01:27:58;;;;;;;1.70;1.45;;;15.40;99.90;;;;;;6111848;23;20030;-73
2022/09/15 01:30:25;;;;;;;1.98;1.60;;;15.40;99.90;;;;;;6076489;23;20022;-75
2022/09/15 01:33:09;;;;;;;2.20;1.65;;;15.30;99.90;;;;;;6088021;23;20062;-74
2022/09/15 01:36:00;;;;;;;1.67;1.40;;;15.20;99.90;;;;;;6088656;23;20022;-75
2022/09/15 01:38:46;;;;;;;1.95;1.70;;;15.20;99.90;;;;;;6116045;23;20459;-73
2022/09/15 01:41:16;;;;;;;1.55;1.27;;;15.20;99.90;;;;;;6095911;23;20478;-76
2022/09/15 01:43:50;;;;;;;2.60;1.63;;;15.10;99.90;;;;;;6093724;23;20032;-75
2022/09/15 01:46:19;;;;;;;2.72;2.00;;;15.00;99.90;;;;;;6091671;23;20353;-76
2022/09/15 01:48:46;;;;;;;1.63;1.42;;;15.00;99.90;;;;;;6067296;23;20029;-76
2022/09/15 01:51:13;;;;;;;1.73;1.33;;;15.00;99.90;;;;;;6091536;23;20026;-76
2022/09/15 01:53:39;;;;;;;2.53;1.65;;;14.90;99.90;;;;;;6066679;23;20030;-76
2022/09/15 01:56:08;;;;;;;1.58;1.33;;;14.90;99.90;;;;;;6068175;23;20416;-76
2022/09/15 01:58:36;;;;;;;1.48;1.30;;;14.80;99.90;;;;;;6091288;23;20082;-75
2022/09/15 02:01:21;;;;;;;1.70;1.40;;;14.80;99.90;;;;;;6090424;23;20491;-76
2022/09/15 02:04:06;;;;;;;1.60;1.40;;;14.80;99.90;;;;;;6090454;23;20022;-76
2022/09/15 02:06:45;;;;;;;1.23;1.08;;;14.70;99.90;;;;;;6091138;23;20044;-76
2022/09/15 02:09:16;;;;;;;1.50;1.20;;;14.70;99.90;;;;;;6091450;23;20029;-77
2022/09/15 02:12:19;;;;;;;1.60;1.25;;;14.60;99.90;;;;;;6091317;23;20022;-75
2022/09/15 02:14:56;;;;;;;1.75;1.42;;;14.60;99.90;;;;;;6116550;23;20026;-76
2022/09/15 02:17:23;;;;;;;1.60;1.23;;;14.60;99.90;;;;;;6092373;23;20026;-76
2022/09/15 02:19:54;;;;;;;1.55;1.23;;;14.50;99.90;;;;;;6090146;23;20026;-76
2022/09/15 02:22:26;;;;;;;1.30;1.20;;;14.40;99.90;;;;;;6092715;23;20025;-74
2022/09/15 02:24:57;;;;;;;2.03;1.80;;;14.40;99.90;;;;;;6093879;23;20323;-74
2022/09/15 02:27:25;;;;;;;1.60;1.20;;;14.40;99.90;;;;;;6119117;23;20141;-75
2022/09/15 02:29:53;;;;;;;1.50;1.30;;;14.40;99.90;;;;;;6093199;23;20022;-74
2022/09/15 02:32:22;;;;;;;1.58;1.40;;;14.40;99.90;;;;;;6068682;23;20829;-75
2022/09/15 02:34:50;;;;;;;1.80;1.60;;;14.30;99.90;;;;;;6093001;23;20105;-74
2022/09/15 02:37:18;;;;;;;2.40;1.83;;;14.30;99.90;;;;;;6093018;23;20034;-74
2022/09/15 02:39:47;;;;;;;1.30;1.10;;;14.30;99.90;;;;;;6070175;23;20025;-74
2022/09/15 02:42:24;;;;;;;1.73;1.48;;;14.30;99.90;;;;;;6070370;23;20049;-74
2022/09/15 02:44:51;;;;;;;1.50;1.25;;;14.20;99.90;;;;;;6094668;23;20029;-74
2022/09/15 02:47:18;;;;;;;2.13;1.63;;;14.30;99.90;;;;;;6092713;23;20022;-74
2022/09/15 02:49:45;;;;;;;1.80;1.40;;;14.30;99.90;;;;;;6093112;23;20331;-74
2022/09/15 02:52:12;;;;;;;2.03;1.58;;;14.30;99.90;;;;;;6068742;23;20030;-74
2022/09/15 02:54:38;;;;;;;2.22;1.60;;;14.30;99.90;;;;;;6093300;23;20018;-74
2022/09/15 02:57:05;;;;;;;2.92;1.73;;;14.30;99.90;;;;;;6118667;23;20661;-74
2022/09/15 03:02:18;;;;;;;2.05;1.55;;;14.20;99.90;;;;;;6095892;23;20587;-74
2022/09/15 03:04:46;;;;;;;1.55;1.30;;;14.30;99.90;;;;;;6092464;23;20490;-74
2022/09/15 03:07:13;;;;;;;1.88;1.58;;;14.30;99.90;;;;;;6093023;23;20026;-74
2022/09/15 03:09:40;;;;;;;1.77;1.40;;;14.30;99.90;;;;;;6092871;23;20022;-74
2022/09/15 03:12:07;;;;;;;2.17;1.45;;;14.30;99.90;;;;;;6093064;23;20090;-75
2022/09/15 03:14:34;;;;;;;1.83;1.73;;;14.30;99.90;;;;;;6092074;23;20022;-74
2022/09/15 03:17:01;;;;;;;1.40;1.30;;;14.40;99.90;;;;;;6091864;23;20025;-74
2022/09/15 03:19:28;;;;;;;2.00;1.80;;;14.40;99.90;;;;;;6091369;23;20026;-73
2022/09/15 03:21:55;;;;;;;1.73;1.63;;;14.40;99.90;;;;;;6068109;23;20021;-73
2022/09/15 03:24:22;;;;;;;1.50;1.40;;;14.40;99.90;;;;;;6068588;23;20026;-74
2022/09/15 03:26:48;;;;;;;1.90;1.50;;;14.40;99.90;;;;;;6092546;23;20022;-73
2022/09/15 03:29:15;;;;;;;1.80;1.50;;;14.40;99.90;;;;;;6092878;23;20097;-74
2022/09/15 03:31:42;;;;;;;1.40;1.17;;;14.30;99.90;;;;;;6091387;23;20410;-73
2022/09/15 03:34:09;;;;;;;1.40;1.30;;;14.30;99.90;;;;;;6092220;23;20136;-73
2022/09/15 03:36:35;;;;;;;1.75;1.35;;;14.30;99.90;;;;;;6092563;23;20288;-73
2022/09/15 03:39:02;;;;;;;2.08;1.63;;;14.30;99.90;;;;;;6069202;23;20504;-73
2022/09/15 03:41:29;;;;;;;2.05;1.38;;;14.30;99.90;;;;;;6118682;23;20044;-74
2022/09/15 03:43:56;;;;;;;1.42;1.30;;;14.30;99.90;;;;;;6118224;23;20022;-73
2022/09/15 03:46:22;;;;;;;2.15;1.77;;;14.30;99.90;;;;;;6117293;23;20101;-73
2022/09/15 03:48:49;;;;;;;1.33;1.15;;;14.30;99.90;;;;;;6092426;23;20018;-74
2022/09/15 03:51:16;;;;;;;1.35;1.25;;;14.30;99.90;;;;;;6092641;23;20098;-73
2022/09/15 03:53:43;;;;;;;1.80;1.45;;;14.30;99.90;;;;;;6117721;23;20092;-73
2022/09/15 03:56:12;;;;;;;1.45;1.30;;;14.30;99.90;;;;;;6117917;23;20041;-73
2022/09/15 03:58:40;;;;;;;2.22;1.90;;;14.40;99.90;;;;;;6092476;23;20028;-74
2022/09/15 04:01:06;;;;;;;1.90;1.58;;;14.30;99.90;;;;;;6092031;23;20560;-73
2022/09/15 04:03:33;;;;;;;1.60;1.27;;;14.30;99.90;;;;;;6091956;23;20470;-73
2022/09/15 04:06:07;;;;;;;1.50;1.30;;;14.30;99.90;;;;;;6093775;23;20121;-73
2022/09/15 04:08:34;;;;;;;1.67;1.35;;;14.30;99.90;;;;;;6117075;23;20454;-73
2022/09/15 04:11:05;;;;;;;2.25;1.45;;;14.30;99.90;;;;;;6117384;23;20026;-73
2022/09/15 04:13:31;;;;;;;1.30;1.20;;;14.20;99.90;;;;;;6068216;23;20037;-74
2022/09/15 04:16:00;;;;;;;1.80;1.58;;;14.20;99.90;;;;;;6117422;23;20098;-74
2022/09/15 04:18:27;;;;;;;2.05;1.70;;;14.20;99.90;;;;;;6091819;23;20029;-73
2022/09/15 04:20:58;;;;;;;1.58;1.40;;;14.20;99.90;;;;;;6090956;23;20470;-73
2022/09/15 04:23:25;;;;;;;1.67;1.50;;;14.10;99.90;;;;;;6117081;23;20028;-74
2022/09/15 04:26:05;;;;;;;2.03;1.83;;;14.10;99.90;;;;;;6092204;23;20037;-73
2022/09/15 04:28:34;;;;;;;1.63;1.50;;;14.00;99.90;;;;;;6118073;23;20076;-73
2022/09/15 04:31:07;;;;;;;1.60;1.30;;;13.90;99.90;;;;;;6091937;23;20030;-73
2022/09/15 04:33:34;;;;;;;1.83;1.58;;;13.90;99.90;;;;;;6091103;23;20026;-74
2022/09/15 04:36:03;;;;;;;1.58;1.42;;;14.00;99.90;;;;;;6091600;23;20378;-73
2022/09/15 04:38:30;;;;;;;2.30;1.70;;;14.00;99.90;;;;;;6091078;23;20018;-73
2022/09/15 04:40:57;;;;;;;1.88;1.48;;;14.10;99.90;;;;;;6068214;23;20057;-73
2022/09/15 04:43:24;;;;;;;1.88;1.60;;;14.00;99.90;;;;;;6092086;23;20018;-73
2022/09/15 04:45:51;;;;;;;2.40;1.83;;;14.00;99.90;;;;;;6115674;23;20123;-73
2022/09/15 04:48:18;;;;;;;2.30;1.55;;;14.00;99.90;;;;;;6090043;23;20040;-74
2022/09/15 04:50:45;;;;;;;3.00;1.50;;;14.10;99.90;;;;;;6087973;23;20029;-73
2022/09/15 04:53:11;;;;;;;2.22;1.42;;;14.00;99.90;;;;;;6088874;23;20453;-73
2022/09/15 04:55:38;;;;;;;2.05;1.40;;;13.90;99.90;;;;;;6088435;23;20022;-73
2022/09/15 04:58:05;;;;;;;1.55;1.30;;;13.90;99.90;;;;;;6087860;23;20026;-74
2022/09/15 05:00:33;;;;;;;1.40;1.20;;;13.90;99.90;;;;;;6113277;23;20028;-74
2022/09/15 05:03:00;;;;;;;1.83;1.30;;;13.90;99.90;;;;;;6111826;23;20554;-74
2022/09/15 05:05:27;;;;;;;1.77;1.50;;;14.00;99.90;;;;;;6111886;23;20018;-75
2022/09/15 05:07:55;;;;;;;1.27;1.17;;;13.90;99.90;;;;;;6086540;23;20469;-75
2022/09/15 05:10:22;;;;;;;2.10;1.40;;;13.90;99.90;;;;;;6112640;23;20292;-75
2022/09/15 05:12:48;;;;;;;1.42;1.17;;;13.90;99.90;;;;;;6112542;23;20334;-74
2022/09/15 05:15:15;;;;;;;2.45;1.70;;;13.80;99.90;;;;;;6087485;23;20037;-74
2022/09/15 05:17:42;;;;;;;2.63;1.73;;;13.80;99.90;;;;;;6111884;23;20093;-74
2022/09/15 05:20:09;;;;;;;1.98;1.30;;;13.70;99.90;;;;;;6062395;23;20026;-75
2022/09/15 05:22:35;;;;;;;1.73;1.40;;;13.70;99.90;;;;;;6110565;23;20087;-74
2022/09/15 05:25:07;;;;;;;1.10;1.00;;;13.70;99.90;;;;;;6064150;23;20022;-74
2022/09/15 05:27:34;;;;;;;1.88;1.45;;;13.70;99.90;;;;;;6113729;23;20049;-74
2022/09/15 05:30:01;;;;;;;2.85;1.70;;;13.70;99.90;;;;;;6115267;23;20025;-75
2022/09/15 05:32:47;;;;;;;1.55;1.23;;;13.60;99.90;;;;;;6092383;23;20026;-74
2022/09/15 05:35:15;;;;;;;2.40;1.52;;;13.70;99.90;;;;;;6088276;23;20034;-75
2022/09/15 05:37:41;;;;;;;3.42;1.50;;;13.70;99.90;;;;;;6115187;23;20024;-74
2022/09/15 05:40:09;;;;;;;1.88;1.50;;;13.70;99.90;;;;;;6065460;23;20034;-75
2022/09/15 05:42:35;;;;;;;2.03;1.70;;;13.60;99.90;;;;;;6089641;23;20022;-74
2022/09/15 05:45:02;;;;;;;2.92;1.35;;;13.60;99.90;;;;;;6090134;23;20101;-74
2022/09/15 05:47:29;;;;;;;1.52;1.23;;;13.60;99.90;;;;;;6088276;23;20378;-75
2022/09/15 05:49:56;;;;;;;1.33;1.10;;;13.70;99.90;;;;;;6115397;23;20018;-74
2022/09/15 05:52:23;;;;;;;1.33;1.23;;;13.70;99.90;;;;;;6089143;23;20025;-75
2022/09/15 05:54:49;;;;;;;1.55;1.15;;;13.80;99.90;;;;;;6090772;23;20327;-75
2022/09/15 05:57:16;;;;;;;1.60;1.35;;;13.80;99.90;;;;;;6115728;23;20104;-75
2022/09/15 05:59:43;;;;;;;1.25;1.15;;;13.80;99.90;;;;;;6112950;23;20022;-75
2022/09/15 06:02:10;;;;;;;1.58;1.38;;;13.80;99.90;;;;;;6083840;23;20126;-75
2022/09/15 06:04:37;;;;;;;1.50;1.20;;;13.80;99.90;;;;;;6107632;23;20068;-75
2022/09/15 06:07:04;;;;;;;1.38;1.17;;;13.90;99.90;;;;;;6111893;23;20030;-74
2022/09/15 06:09:31;;;;;;;1.40;1.20;;;13.80;99.90;;;;;;6090534;23;20096;-79
2022/09/15 06:11:58;;;;;;;1.10;1.00;;;13.80;99.90;;;;;;6115313;23;20097;-75
2022/09/15 06:14:25;;;;;;;2.30;1.80;;;13.90;99.90;;;;;;6088414;23;20037;-75
2022/09/15 06:16:52;;;;;;;1.88;1.60;;;13.80;99.90;;;;;;6061340;23;20122;-74
2022/09/15 06:19:18;;;;;;;2.15;1.60;;;13.80;99.90;;;;;;6110404;23;20101;-74
2022/09/15 06:21:46;;;;;;;2.00;1.80;;;13.90;99.90;;;;;;6084957;23;20029;-74
2022/09/15 06:24:12;;;;;;;1.42;1.20;;;13.90;99.90;;;;;;6113543;23;20025;-74
2022/09/15 06:26:39;;;;;;;2.00;1.50;;;14.00;99.90;;;;;;6110406;23;20030;-74
2022/09/15 06:29:06;;;;;;;1.20;1.10;;;14.00;99.90;;;;;;6084763;23;20018;-73
2022/09/15 06:31:33;;;;;;;1.25;1.10;;;14.00;99.90;;;;;;6086626;23;20032;-74
2022/09/15 06:34:01;;;;;;;1.85;1.33;;;14.10;99.90;;;;;;6086010;23;20852;-74
2022/09/15 06:36:28;;;;;;;1.90;1.30;;;14.10;99.90;;;;;;6085999;23;20362;-75
2022/09/15 06:38:55;;;;;;;0.85;0.82;;;14.20;99.90;;;;;;6062919;23;20018;-75
2022/09/15 06:41:22;;;;;;;1.10;0.95;;;14.20;99.90;;;;;;6085254;23;20104;-74
2022/09/15 06:43:49;;;;;;;1.13;0.90;;;14.30;99.90;;;;;;6085569;23;20382;-74
2022/09/15 06:46:27;;;;;;;1.23;1.05;;;14.40;99.90;;;;;;6111539;23;20461;-74
2022/09/15 06:48:54;;;;;;;1.20;1.10;;;14.40;99.90;;;;;;6061907;23;20140;-74
2022/09/15 06:51:23;;;;;;;1.42;1.10;;;14.50;99.90;;;;;;6085338;23;20522;-74
2022/09/15 06:53:49;;;;;;;1.05;0.90;;;14.40;99.90;;;;;;6061742;23;20026;-74
2022/09/15 06:56:18;;;;;;;1.50;1.10;;;14.50;99.90;;;;;;6086193;23;20104;-74
2022/09/15 06:58:45;;;;;;;0.90;0.80;;;14.60;99.90;;;;;;6086303;23;20026;-74
2022/09/15 07:01:13;;;;;;;1.25;1.02;;;14.60;99.90;;;;;;6085881;23;20030;-74
2022/09/15 07:03:41;;;;;;;2.03;1.40;;;14.60;99.90;;;;;;6085611;23;20086;-74
2022/09/15 07:06:08;;;;;;;1.30;1.17;;;14.70;99.90;;;;;;6085953;23;20283;-74
2022/09/15 07:08:35;;;;;;;1.70;1.30;;;14.70;99.90;;;;;;6086571;23;20030;-75
2022/09/15 07:11:03;;;;;;;1.38;1.27;;;14.70;99.90;;;;;;6088227;23;20022;-74
2022/09/15 07:13:29;;;;;;;2.70;1.98;;;14.80;99.90;;;;;;6087783;23;20024;-74
2022/09/15 07:15:57;;;;;;;1.52;1.35;;;14.80;99.90;;;;;;6088314;23;20101;-74
2022/09/15 07:18:25;;;;;;;1.52;1.40;;;14.80;99.90;;;;;;6063394;23;20030;-74
2022/09/15 07:20:52;;;;;;;1.20;1.10;;;14.80;99.90;;;;;;6086864;23;20049;-74
2022/09/15 07:23:19;;;;;;;1.77;1.48;;;14.90;99.90;;;;;;6086934;23;20484;-75
2022/09/15 07:25:46;;;;;;;1.90;1.52;;;14.90;99.90;;;;;;6113891;23;20022;-74
2022/09/15 07:28:13;;;;;;;1.88;1.25;;;14.90;99.90;;;;;;6087689;23;20036;-75
2022/09/15 07:30:41;;;;;;;1.90;1.45;;;14.90;99.90;;;;;;6087391;23;20017;-74
2022/09/15 07:33:09;;;;;;;1.65;1.33;;;15.00;99.90;;;;;;6088012;23;20420;-75
2022/09/15 07:35:42;;;;;;;1.90;1.52;;;15.10;99.90;;;;;;6087100;23;20041;-74
2022/09/15 07:38:09;;;;;;;;;;;15.20;99.90;;;;;;6088288;23;20101;-75
2022/09/15 07:40:37;;;;;;;1.35;1.15;;;15.30;99.90;;;;;;6087921;23;19976;-74
2022/09/15 07:43:04;;;;;;;1.55;1.17;;;15.40;99.90;;;;;;6087456;23;20351;-74
2022/09/15 07:45:31;;;;;;;2.45;1.70;;;15.60;99.90;;;;;;6087637;23;20098;-74
2022/09/15 07:47:58;;;;;;;2.00;1.60;;;15.60;99.90;;;;;;6112896;23;20037;-74
2022/09/15 07:50:25;;;;;;;2.63;2.13;;;15.70;99.90;;;;;;6086931;23;20137;-74
2022/09/15 07:52:55;;;;;;;2.33;1.80;;;15.70;99.90;;;;;;6113783;23;20225;-75
2022/09/15 07:55:22;;;;;;;1.83;1.52;;;15.70;99.90;;;;;;6064115;23;20030;-74
2022/09/15 07:57:59;;;;;;;2.00;1.40;;;15.80;99.90;;;;;;6087924;23;20018;-74
2022/09/15 08:00:26;;;;;;;1.38;1.27;;;15.80;99.90;;;;;;6087051;23;20022;-74
2022/09/15 08:02:54;;;;;;;2.28;1.70;;;15.90;99.90;;;;;;6086916;23;20018;-74
2022/09/15 08:05:24;;;;;;;2.38;1.77;;;15.90;99.90;;;;;;6062737;23;20462;-74
2022/09/15 08:07:51;;;;;;;3.08;2.10;;;16.00;99.90;;;;;;6087444;23;20022;-74
2022/09/15 08:10:18;;;;;;;1.92;1.73;;;16.00;99.90;;;;;;6064350;23;20022;-74
2022/09/15 08:12:44;;;;;;;1.90;1.70;;;16.00;99.90;;;;;;6063526;23;20402;-74
2022/09/15 08:15:11;;;;;;;1.40;1.20;;;16.00;99.90;;;;;;6087386;23;20394;-74
2022/09/15 08:17:38;;;;;;;2.05;1.40;;;16.00;99.90;;;;;;6086450;23;20379;-74
2022/09/15 08:20:05;;;;;;;2.65;1.65;;;16.00;99.90;;;;;;6086934;23;20322;-74
2022/09/15 08:22:32;;;;;;;1.98;1.45;;;16.00;99.90;;;;;;6087651;23;20091;-74
2022/09/15 08:24:59;;;;;;;2.05;1.63;;;16.00;99.90;;;;;;6086885;23;20243;-73
2022/09/15 08:27:26;;;;;;;1.73;1.33;;;15.90;99.90;;;;;;6111202;23;20100;-74
2022/09/15 08:29:52;;;;;;;2.63;2.10;;;16.00;99.90;;;;;;6063124;23;20044;-74
2022/09/15 08:32:19;;;;;;;4.05;2.20;;;15.90;99.90;;;;;;6061551;23;20049;-74
2022/09/15 08:34:46;;;;;;;2.80;2.20;;;15.90;99.90;;;;;;6081148;23;20382;-75
2022/09/15 08:37:13;;;;;;;1.70;1.52;;;16.00;99.90;;;;;;6059493;23;20326;-75
2022/09/15 08:39:40;;;;;;;2.00;1.80;;;16.00;99.90;;;;;;6108695;23;20022;-74
2022/09/15 08:42:11;;;;;;;1.67;1.40;;;16.10;99.90;;;;;;6083121;23;20420;-76
2022/09/15 08:44:50;;;;;;;1.92;1.65;;;16.20;99.90;;;;;;6058170;23;20384;-75
2022/09/15 08:47:24;;;;;;;2.30;1.67;;;16.40;99.90;;;;;;6081172;23;20302;-75
2022/09/15 08:50:00;;;;;;;1.30;1.10;;;16.50;99.90;;;;;;6058334;23;20022;-75
2022/09/15 08:52:50;;;;;;;1.58;1.23;;;16.70;99.90;;;;;;6082222;23;20033;-75
2022/09/15 08:55:40;;;;;;;2.30;1.52;;;16.80;99.90;;;;;;6083636;23;20022;-74
2022/09/15 08:58:14;;;;;;;1.73;1.38;;;17.00;99.90;;;;;;6109338;23;20200;-74
2022/09/15 09:00:41;;;;;;;2.55;1.55;;;17.00;99.90;;;;;;6083158;23;20018;-75
2022/09/15 09:03:30;;;;;;;1.33;1.00;;;17.10;99.90;;;;;;6082297;23;20390;-74
2022/09/15 09:06:07;;;;;;;1.30;1.20;;;17.20;99.90;;;;;;6086923;23;20086;-75
2022/09/15 09:08:56;;;;;;;2.10;1.40;;;17.20;99.90;;;;;;6082532;23;20084;-74
2022/09/15 09:11:44;;;;;;;1.52;1.25;;;17.30;99.90;;;;;;6083200;23;20116;-75
2022/09/15 09:14:32;;;;;;;2.00;1.20;;;17.30;99.90;;;;;;6086678;23;20026;-74
2022/09/15 09:17:15;;;;;;;1.88;1.10;;;17.40;99.90;;;;;;6082025;23;20025;-75
2022/09/15 09:19:45;;;;;;;1.85;1.42;;;17.50;99.90;;;;;;6082277;23;20030;-75
2022/09/15 09:22:14;;;;;;;2.00;1.35;;;17.60;99.90;;;;;;6108475;23;20412;-75
2022/09/15 09:24:45;;;;;;;1.98;1.17;;;17.70;99.90;;;;;;6083553;23;20030;-74
2022/09/15 09:27:17;;;;;;;2.17;1.30;;;17.80;99.90;;;;;;6082948;23;20026;-75
2022/09/15 09:29:48;;;;;;;3.22;2.13;;;17.80;99.90;;;;;;6083271;23;20531;-75
2022/09/15 09:32:26;;;;;;;2.63;1.65;;;17.80;99.90;;;;;;6059120;23;20028;-75
2022/09/15 09:34:57;;;;;;;2.83;1.55;;;17.90;99.90;;;;;;6059561;23;20080;-75
2022/09/15 09:37:24;;;;;;;1.80;1.20;;;18.00;99.90;;;;;;6083783;23;20022;-75
2022/09/15 09:39:51;;;;;;;2.47;1.50;;;18.10;99.90;;;;;;6059454;23;20026;-75
2022/09/15 09:42:17;;;;;;;1.23;1.13;;;18.20;99.90;;;;;;6059086;23;20096;-75
2022/09/15 09:44:45;;;;;;;1.83;1.10;;;18.30;99.90;;;;;;6059807;23;20018;-75
2022/09/15 09:47:12;;;;;;;1.30;1.20;;;18.40;99.90;;;;;;6059190;23;20115;-74
2022/09/15 09:49:44;;;;;;;3.72;1.95;;;18.50;99.90;;;;;;6082010;23;20018;-74
2022/09/15 09:52:11;;;;;;;2.35;1.88;;;18.50;99.90;;;;;;6083332;23;20033;-74
2022/09/15 09:54:38;;;;;;;2.95;1.70;;;18.50;99.90;;;;;;6082396;23;20113;-74
2022/09/15 09:57:20;;;;;;;2.55;1.65;;;18.50;99.90;;;;;;6082604;23;20534;-74
2022/09/15 09:59:48;;;;;;;2.07;1.20;;;18.50;99.90;;;;;;6083422;23;20029;-75
2022/09/15 10:02:19;;;;;;;3.95;1.63;;;18.50;99.90;;;;;;6081151;23;20032;-74
2022/09/15 10:05:04;;;;;;;3.42;1.70;;;18.40;99.90;;;;;;6081289;23;20419;-74
2022/09/15 10:07:32;;;;;;;2.40;1.40;;;18.20;99.90;;;;;;6082514;23;20025;-75
2022/09/15 10:09:59;;;;;;;2.22;1.45;;;18.20;99.90;;;;;;6058823;23;20040;-75
2022/09/15 10:12:33;;;;;;;3.63;1.55;;;18.20;99.90;;;;;;6058830;23;20032;-75
2022/09/15 10:15:02;;;;;;;4.68;2.17;;;18.30;99.90;;;;;;6081859;23;20025;-75
2022/09/15 10:17:35;;;;;;;2.20;1.55;;;18.30;99.90;;;;;;6057933;23;20127;-74
2022/09/15 10:20:02;;;;;;;;;;;18.30;99.90;;;;;;6108296;23;20636;-75
2022/09/15 10:22:36;;;;;;;3.08;1.77;;;18.40;99.90;;;;;;6082720;23;19923;-75
2022/09/15 10:25:25;;;;;;;3.42;1.40;;;18.50;99.90;;;;;;6059363;23;20022;-75
2022/09/15 10:28:20;;;;;;;1.70;1.13;;;18.50;99.90;;;;;;6104768;23;20034;-76
2022/09/15 10:30:57;;;;;;;2.97;1.60;;;18.70;99.90;;;;;;6080618;23;20109;-74
2022/09/15 10:33:26;;;;;;;1.50;1.10;;;18.70;99.90;;;;;;6107486;23;20089;-74
2022/09/15 10:35:54;;;;;;;2.38;1.60;;;18.90;99.90;;;;;;6080593;23;20034;-73
2022/09/15 10:38:49;;;;;;;2.75;1.52;;;18.90;99.90;;;;;;6107570;23;20918;-73
2022/09/15 10:41:33;;;;;;;2.40;1.80;;;19.00;99.90;;;;;;6065714;23;20319;-73
2022/09/15 10:44:39;;;;;;;2.13;1.38;;;19.00;99.90;;;;;;6084355;23;20491;-73
2022/09/15 10:47:19;;;;;;;2.40;1.50;;;19.10;99.90;;;;;;5990609;23;20035;-74
2022/09/15 10:50:15;;;;;;;3.53;1.55;;;19.20;99.90;;;;;;6099408;23;20476;-73
2022/09/15 10:53:14;;;;;;;3.38;1.63;;;19.30;99.90;;;;;;6083063;23;20026;-73
2022/09/15 10:55:53;;;;;;;1.65;1.25;;;19.30;99.90;;;;;;6084354;23;20108;-73
2022/09/15 10:58:30;;;;;;;1.52;1.17;;;19.30;99.90;;;;;;6109810;23;20034;-75
2022/09/15 11:01:08;;;;;;;2.60;1.25;;;19.50;99.90;;;;;;6083037;23;20053;-75
2022/09/15 11:04:01;;;;;;;3.20;1.63;;;19.60;99.90;;;;;;6082439;23;20085;-74
2022/09/15 11:06:38;;;;;;;2.65;1.83;;;19.70;99.90;;;;;;6052939;23;20553;-75
2022/09/15 11:09:24;;;;;;;2.38;1.60;;;19.70;99.90;;;;;;6085642;23;20030;-74
2022/09/15 11:12:06;;;;;;;2.78;1.38;;;19.60;99.90;;;;;;6109519;23;20432;-75
2022/09/15 11:15:09;;;;;;;2.80;1.45;;;19.70;99.90;;;;;;6061829;23;20116;-75
2022/09/15 11:18:20;;;;;;;1.98;1.10;;;19.70;99.90;;;;;;6048883;23;20280;-75
2022/09/15 11:20:50;;;;;;;2.50;1.20;;;19.90;99.90;;;;;;6082483;23;20030;-75
2022/09/15 11:23:26;;;;;;;3.03;1.52;;;20.00;99.90;;;;;;6108605;23;20021;-75
2022/09/15 11:25:59;;;;;;;1.67;1.13;;;20.20;99.90;;;;;;6059508;23;20048;-75
2022/09/15 11:28:50;;;;;;;1.90;1.27;;;20.70;99.90;;;;;;6083037;23;20051;-75
2022/09/15 11:31:20;;;;;;;3.53;1.48;;;20.90;99.90;;;;;;6081064;23;20038;-74
2022/09/15 11:33:47;;;;;;;1.90;1.17;;;20.80;99.90;;;;;;6082394;23;20026;-74
2022/09/15 11:36:17;;;;;;;2.33;1.20;;;20.80;99.90;;;;;;6108437;23;20034;-75
2022/09/15 11:39:19;;;;;;;2.28;1.13;;;20.60;99.90;;;;;;6058511;23;20021;-75
2022/09/15 11:42:09;;;;;;;2.13;1.10;;;20.50;99.90;;;;;;6092729;23;20025;-75
2022/09/15 11:44:37;;;;;;;1.48;1.00;;;20.50;99.90;;;;;;6083413;23;20026;-75
2022/09/15 11:47:06;;;;;;;2.28;1.00;;;20.40;99.90;;;;;;6082789;23;20022;-75
2022/09/15 11:49:59;;;;;;;1.75;0.95;;;20.40;99.90;;;;;;6082615;23;20359;-75
2022/09/15 11:52:34;;;;;;;2.10;1.33;;;20.40;99.90;;;;;;6082950;23;20021;-75
2022/09/15 11:55:35;;;;;;;1.98;1.17;;;20.20;99.90;;;;;;6108708;23;20252;-75
2022/09/15 11:58:20;;;;;;;2.28;1.20;;;20.20;99.90;;;;;;6083604;23;20048;-75
2022/09/15 12:01:26;;;;;;;2.40;1.50;;;20.20;99.90;;;;;;6108497;23;20030;-75
2022/09/15 12:03:58;;;;;;;1.77;1.25;;;20.20;99.90;;;;;;6037417;23;20027;-75
2022/09/15 12:07:05;;;;;;;3.67;1.70;;;20.20;99.90;;;;;;6048550;23;20023;-75
2022/09/15 12:09:37;;;;;;;2.47;1.42;;;19.90;99.90;;;;;;6047054;23;20079;-75
2022/09/15 12:12:15;;;;;;;3.67;1.80;;;19.60;99.90;;;;;;6026374;23;20034;-75
2022/09/15 12:14:43;;;;;;;2.75;1.67;;;19.60;99.90;;;;;;6049472;23;20038;-75
2022/09/15 12:17:18;;;;;;;2.95;2.10;;;19.50;99.90;;;;;;6048614;23;20398;-75
2022/09/15 12:19:51;;;;;;;2.47;1.52;;;19.30;99.90;;;;;;6025426;23;20018;-75
2022/09/15 12:23:00;;;;;;;2.70;1.95;;;19.30;99.90;;;;;;6048883;23;20049;-75
2022/09/15 12:25:32;;;;;;;2.08;1.30;;;19.20;99.90;;;;;;6049616;23;20057;-74
2022/09/15 12:28:21;;;;;;;2.63;1.50;;;19.40;99.90;;;;;;6048353;23;20456;-74
2022/09/15 12:31:22;;;;;;;2.67;1.42;;;19.40;99.90;;;;;;6050233;23;20023;-75
2022/09/15 12:34:02;;;;;;;1.85;1.30;;;19.30;99.90;;;;;;6048761;23;20027;-74
2022/09/15 12:36:36;;;;;;;2.17;1.30;;;19.30;99.90;;;;;;6049247;23;20018;-74
2022/09/15 12:39:16;;;;;;;2.78;1.50;;;19.40;99.90;;;;;;6048193;23;20328;-74
2022/09/15 12:42:04;;;;;;;2.53;1.20;;;19.50;99.90;;;;;;6049490;23;20110;-74
2022/09/15 12:44:55;;;;;;;2.63;1.42;;;19.60;99.90;;;;;;6048270;23;20035;-74
2022/09/15 12:47:41;;;;;;;2.03;1.10;;;19.70;99.90;;;;;;6048679;23;20065;-74
2022/09/15 12:50:26;;;;;;;2.40;1.20;;;20.10;99.90;;;;;;6024283;23;20030;-74
2022/09/15 12:52:58;;;;;;;1.50;1.00;;;20.40;99.90;;;;;;6025468;23;20026;-74
2022/09/15 12:55:27;;;;;;;2.40;1.40;;;20.50;99.90;;;;;;6024888;23;20031;-74
2022/09/15 12:57:59;;;;;;;3.25;1.25;;;20.30;99.90;;;;;;6048572;23;20022;-74
2022/09/15 13:00:27;;;;;;;2.60;1.10;;;20.20;99.90;;;;;;6048635;23;20064;-74
2022/09/15 13:02:54;;;;;;;1.77;1.20;;;20.10;99.90;;;;;;6046000;23;20026;-74
2022/09/15 13:05:40;;;;;;;1.73;0.95;;;20.00;99.90;;;;;;6077076;23;20093;-74
2022/09/15 13:08:35;;;;;;;2.10;1.13;;;20.20;99.90;;;;;;6077555;23;20231;-74
2022/09/15 13:11:09;;;;;;;2.25;1.20;;;20.40;99.90;;;;;;6068168;23;20084;-74
2022/09/15 13:13:56;;;;;;;4.22;1.55;;;20.40;99.90;;;;;;6075871;23;20505;-74
2022/09/15 13:16:32;;;;;;;1.33;0.82;;;20.50;99.90;;;;;;6077734;23;20272;-74
2022/09/15 13:19:28;;;;;;;2.53;1.15;;;20.30;99.90;;;;;;6078293;23;20038;-73